Time;durP1;ratioP1;P1;durP2;ratioP2;P2;SDS_P1;SDS_P2;PMS_P1;PMS_P2;Temp;Humidity;BMP_temperature;BMP_pressure;BME280_temperature;BME280_humidity;BME280_pressure;Samples;Min_cycle;Max_cycle;Signal;HPM_P1;HPM_P2
2021/01/02 00:02:44;;;;;;;57.55;34.65;;;;;;;7.51;100.00;101629.31;5102598;28;20024;-75
2021/01/02 00:05:55;;;;;;;61.13;35.47;;;;;;;7.45;100.00;101637.09;5100375;28;20044;-74
2021/01/02 00:08:50;;;;;;;56.35;33.88;;;;;;;7.56;100.00;101651.06;5116157;28;20023;-74
2021/01/02 00:11:50;;;;;;;55.97;33.80;;;;;;;7.42;100.00;101662.22;5116201;28;20048;-75
2021/01/02 00:14:56;;;;;;;52.95;32.55;;;;;;;7.70;100.00;101659.03;5116543;28;20023;-75
2021/01/02 00:18:00;;;;;;;51.30;31.35;;;;;;;7.61;100.00;101658.97;5115455;28;20035;-75
2021/01/02 00:21:03;;;;;;;52.38;32.05;;;;;;;7.89;100.00;101656.63;5115811;28;20149;-74
2021/01/02 00:24:01;;;;;;;48.00;28.50;;;;;;;7.82;100.00;101662.63;5101938;28;20118;-74
2021/01/02 00:26:56;;;;;;;48.30;28.25;;;;;;;7.37;100.00;101662.22;5116936;27;20023;-75
2021/01/02 00:30:00;;;;;;;44.28;27.75;;;;;;;7.57;100.00;101659.78;5114144;28;20050;-75
2021/01/02 00:33:04;;;;;;;40.65;24.75;;;;;;;7.69;100.00;101665.13;5115182;28;20039;-75
2021/01/02 00:35:51;;;;;;;41.47;25.48;;;;;;;7.18;100.00;101673.28;5116427;27;20365;-74
2021/01/02 00:38:38;;;;;;;37.35;24.08;;;;;;;7.42;100.00;101675.25;5114873;28;20019;-74
2021/01/02 00:41:27;;;;;;;34.50;22.55;;;;;;;7.46;100.00;101670.09;5115893;28;20353;-74
2021/01/02 00:44:14;;;;;;;36.92;22.75;;;;;;;7.51;100.00;101664.97;5099892;28;20012;-74
2021/01/02 00:47:01;;;;;;;38.13;24.27;;;;;;;7.34;100.00;101666.50;5100085;28;20032;-75
2021/01/02 00:49:50;;;;;;;37.35;23.55;;;;;;;7.45;100.00;101672.69;5114737;28;20462;-74
2021/01/02 00:52:44;;;;;;;37.10;23.20;;;;;;;7.02;100.00;101670.47;5114865;28;20114;-75
2021/01/02 00:55:36;;;;;;;43.40;25.45;;;;;;;7.44;100.00;101682.25;5099391;28;20466;-75
2021/01/02 00:58:34;;;;;;;35.28;22.58;;;;;;;7.50;100.00;101684.03;5114806;28;20076;-75
2021/01/02 01:01:45;;;;;;;35.80;22.67;;;;;;;7.11;100.00;101692.28;5115865;27;20046;-74
2021/01/02 01:04:40;;;;;;;34.00;21.85;;;;;;;7.08;100.00;101689.66;5114169;28;20095;-74
2021/01/02 01:07:26;;;;;;;30.23;19.23;;;;;;;7.11;100.00;101692.28;5114739;28;20498;-74
2021/01/02 01:10:12;;;;;;;26.25;17.50;;;;;;;7.35;100.00;101689.13;5114723;28;20463;-75
2021/01/02 01:13:05;;;;;;;26.40;15.88;;;;;;;7.10;100.00;101692.28;5115712;27;20372;-74
2021/01/02 01:15:51;;;;;;;23.83;15.85;;;;;;;6.99;100.00;101693.91;5114752;28;20035;-74
2021/01/02 01:18:45;;;;;;;23.63;16.33;;;;;;;6.94;100.00;101703.34;5099314;28;20035;-74
2021/01/02 01:21:35;;;;;;;24.80;16.45;;;;;;;6.41;100.00;101696.53;5113783;28;20060;-74
2021/01/02 01:24:56;;;;;;;26.00;17.13;;;;;;;6.22;100.00;101694.53;5114682;28;20449;-73
2021/01/02 01:27:55;;;;;;;27.25;17.20;;;;;;;6.58;100.00;101685.53;5114634;28;20028;-74
2021/01/02 01:30:43;;;;;;;29.90;19.10;;;;;;;6.40;100.00;101690.47;5115013;28;20059;-74
2021/01/02 01:33:29;;;;;;;29.10;19.55;;;;;;;6.49;100.00;101690.59;5114002;28;20026;-74
2021/01/02 01:36:21;;;;;;;31.08;20.60;;;;;;;6.29;100.00;101691.16;5113480;28;20032;-74
2021/01/02 01:39:07;;;;;;;32.22;21.05;;;;;;;6.34;100.00;101692.97;5114114;28;20468;-73
2021/01/02 01:42:21;;;;;;;36.47;22.20;;;;;;;6.31;100.00;101697.28;5113963;28;20031;-76
2021/01/02 01:45:27;;;;;;;34.65;20.88;;;;;;;6.16;100.00;101695.31;5114818;28;20365;-75
2021/01/02 01:48:22;;;;;;;34.83;21.17;;;;;;;6.33;100.00;101698.16;5070617;28;20445;-75
2021/01/02 01:51:11;;;;;;;32.58;20.85;;;;;;;6.67;100.00;101703.88;5114127;28;20036;-74
2021/01/02 01:54:20;;;;;;;35.63;22.48;;;;;;;6.39;100.00;101706.94;5115662;28;20270;-74
2021/01/02 01:57:06;;;;;;;35.05;22.23;;;;;;;6.14;100.00;101701.34;5100552;28;20031;-74
2021/01/02 01:59:57;;;;;;;33.35;20.92;;;;;;;6.37;100.00;101700.84;5114565;28;20024;-75
2021/01/02 02:02:46;;;;;;;30.88;20.83;;;;;;;6.60;100.00;101698.56;5116627;28;20039;-73
2021/01/02 02:05:37;;;;;;;36.28;22.42;;;;;;;6.59;100.00;101691.63;5118432;28;20318;-73
2021/01/02 02:08:48;;;;;;;32.40;21.73;;;;;;;6.31;100.00;101687.72;5118048;28;20024;-73
2021/01/02 02:11:37;;;;;;;43.13;23.30;;;;;;;6.25;100.00;101682.44;5117604;28;20020;-74
2021/01/02 02:14:43;;;;;;;34.53;22.77;;;;;;;6.22;100.00;101684.13;5102979;28;20025;-74
2021/01/02 02:17:42;;;;;;;34.95;23.30;;;;;;;6.50;100.00;101686.25;5104445;28;20070;-74
2021/01/02 02:20:30;;;;;;;34.90;23.55;;;;;;;6.45;100.00;101687.94;5105778;28;20496;-74
2021/01/02 02:23:15;;;;;;;36.60;23.77;;;;;;;6.68;100.00;101694.34;5118244;28;20051;-74
2021/01/02 02:26:08;;;;;;;35.08;22.65;;;;;;;6.47;100.00;101696.66;5118407;28;20032;-75
2021/01/02 02:29:12;;;;;;;35.92;22.50;;;;;;;6.48;100.00;101691.47;5118672;28;20456;-73
2021/01/02 02:32:07;;;;;;;38.80;24.92;;;;;;;6.63;100.00;101688.19;5118693;28;20034;-74
2021/01/02 02:34:53;;;;;;;35.60;23.40;;;;;;;6.18;100.00;101696.19;5119520;27;20028;-74
2021/01/02 02:37:41;;;;;;;40.20;25.50;;;;;;;6.07;100.00;101699.50;5117482;28;20073;-74
2021/01/02 02:40:28;;;;;;;40.10;25.13;;;;;;;6.07;100.00;101704.69;5118257;28;20049;-73
2021/01/02 02:43:15;;;;;;;37.72;23.30;;;;;;;5.65;100.00;101697.00;5117411;28;20089;-75
2021/01/02 02:46:02;;;;;;;38.08;25.00;;;;;;;5.95;100.00;101700.13;5102815;28;20437;-74
2021/01/02 02:48:52;;;;;;;42.35;26.05;;;;;;;5.69;100.00;101700.50;5119207;27;20031;-74
2021/01/02 02:51:47;;;;;;;41.38;25.98;;;;;;;5.81;100.00;101692.97;5104244;28;20059;-74
2021/01/02 02:54:32;;;;;;;42.60;27.15;;;;;;;5.88;100.00;101695.72;5101892;28;20020;-74
2021/01/02 02:57:20;;;;;;;44.70;28.15;;;;;;;6.03;100.00;101697.69;5117094;28;20099;-75
2021/01/02 03:00:07;;;;;;;44.97;28.83;;;;;;;5.96;100.00;101691.50;5117592;28;20074;-73
2021/01/02 03:02:53;;;;;;;44.08;28.85;;;;;;;5.88;100.00;101694.81;5101616;28;20027;-75
2021/01/02 03:05:40;;;;;;;48.72;28.80;;;;;;;6.18;100.00;101695.34;5103569;28;20023;-74
2021/01/02 03:08:26;;;;;;;45.88;28.58;;;;;;;5.84;100.00;101690.41;5116995;28;20088;-75
2021/01/02 03:11:14;;;;;;;46.60;27.13;;;;;;;6.02;100.00;101695.94;5117055;28;20100;-74
2021/01/02 03:13:59;;;;;;;45.33;26.35;;;;;;;5.70;100.00;101690.13;5100360;28;20032;-73
2021/01/02 03:16:45;;;;;;;39.22;24.45;;;;;;;5.57;100.00;101684.69;5101569;28;20043;-74
2021/01/02 03:19:34;;;;;;;34.95;21.85;;;;;;;5.57;100.00;101689.88;5116749;28;20027;-74
2021/01/02 03:22:19;;;;;;;33.08;20.52;;;;;;;5.50;100.00;101695.84;5116720;28;20376;-74
2021/01/02 03:25:10;;;;;;;33.47;22.50;;;;;;;5.82;100.00;101689.53;5115882;28;20011;-74
2021/01/02 03:27:57;;;;;;;32.53;20.67;;;;;;;5.91;100.00;101692.28;5116358;28;20036;-75
2021/01/02 03:30:42;;;;;;;35.63;22.02;;;;;;;6.23;100.00;101696.28;5115984;28;20089;-74
2021/01/02 03:33:28;;;;;;;34.95;23.17;;;;;;;6.07;100.00;101694.28;5101130;28;20028;-74
2021/01/02 03:36:14;;;;;;;36.30;21.77;;;;;;;6.15;100.00;101690.06;5117919;27;20369;-75
2021/01/02 03:39:00;;;;;;;33.05;21.77;;;;;;;5.97;100.00;101687.16;5116855;28;20032;-74
2021/01/02 03:41:46;;;;;;;35.20;23.02;;;;;;;6.03;100.00;101688.13;5116354;28;20034;-74
2021/01/02 03:44:32;;;;;;;32.63;21.45;;;;;;;6.07;100.00;101691.69;5116732;28;20035;-75
2021/01/02 03:47:18;;;;;;;35.45;21.63;;;;;;;5.95;100.00;101684.53;5115842;28;20023;-74
2021/01/02 03:50:06;;;;;;;38.70;24.02;;;;;;;5.81;100.00;101680.84;5115676;28;20034;-74
2021/01/02 03:52:51;;;;;;;36.88;23.83;;;;;;;5.83;100.00;101681.72;5100586;28;20035;-73
2021/01/02 03:55:37;;;;;;;40.22;24.00;;;;;;;6.03;100.00;101687.28;5116094;28;20028;-74
2021/01/02 03:58:23;;;;;;;40.78;25.67;;;;;;;6.08;100.00;101683.03;5115645;28;20099;-74
2021/01/02 04:01:11;;;;;;;40.95;24.80;;;;;;;5.43;100.00;101687.06;5115070;28;20472;-75
2021/01/02 04:03:57;;;;;;;38.55;24.02;;;;;;;5.16;100.00;101695.19;5115413;28;20019;-74
2021/01/02 04:06:43;;;;;;;43.25;25.75;;;;;;;5.22;100.00;101700.50;5115851;28;20023;-74
2021/01/02 04:09:28;;;;;;;42.53;26.17;;;;;;;5.96;100.00;101699.31;5116048;28;20047;-74
2021/01/02 04:12:14;;;;;;;42.00;25.00;;;;;;;5.78;100.00;101705.91;5115831;28;20035;-75
2021/01/02 04:15:00;;;;;;;42.97;25.83;;;;;;;5.82;100.00;101711.19;5116144;28;20039;-74
2021/01/02 04:17:46;;;;;;;40.72;25.85;;;;;;;5.97;100.00;101713.16;5115158;28;20039;-74
2021/01/02 04:20:32;;;;;;;40.67;26.13;;;;;;;5.86;100.00;101722.53;5115244;28;20031;-73
2021/01/02 04:23:19;;;;;;;36.72;22.35;;;;;;;5.88;100.00;101713.03;5115980;28;20126;-74
2021/01/02 04:26:05;;;;;;;34.58;21.95;;;;;;;6.05;100.00;101716.78;5115342;28;20027;-73
2021/01/02 04:28:54;;;;;;;36.58;23.25;;;;;;;5.74;100.00;101723.16;5115063;28;20411;-74
2021/01/02 04:31:40;;;;;;;38.63;23.45;;;;;;;5.84;100.00;101732.03;5114672;28;20471;-74
2021/01/02 04:34:27;;;;;;;34.50;21.10;;;;;;;5.94;100.00;101734.81;5115408;28;20035;-74
2021/01/02 04:37:13;;;;;;;33.83;21.75;;;;;;;5.97;100.00;101731.38;5114837;28;20036;-74
2021/01/02 04:39:59;;;;;;;33.42;21.42;;;;;;;5.86;100.00;101733.78;5114008;28;20031;-73
2021/01/02 04:42:48;;;;;;;29.10;18.25;;;;;;;5.68;100.00;101738.66;5114768;28;20034;-73
2021/01/02 04:45:35;;;;;;;33.22;21.02;;;;;;;5.52;100.00;101749.59;5115350;28;20020;-74
2021/01/02 04:48:20;;;;;;;40.40;23.55;;;;;;;5.52;100.00;101749.59;5101525;28;20452;-73
2021/01/02 04:51:10;;;;;;;39.38;24.65;;;;;;;5.88;100.00;101759.84;5114057;28;20046;-74
2021/01/02 04:54:01;;;;;;;40.17;24.25;;;;;;;5.66;100.00;101749.88;5099651;28;20028;-73
2021/01/02 04:56:46;;;;;;;41.90;25.27;;;;;;;6.01;100.00;101752.28;5114695;28;20054;-73
2021/01/02 04:59:34;;;;;;;43.70;25.92;;;;;;;6.06;100.00;101757.56;5116463;28;20181;-74
2021/01/02 05:02:20;;;;;;;40.63;24.60;;;;;;;5.77;100.00;101756.13;5099601;28;20016;-73
2021/01/02 05:05:07;;;;;;;41.80;25.67;;;;;;;5.73;100.00;101769.91;5114930;28;20020;-74
2021/01/02 05:07:52;;;;;;;41.25;25.33;;;;;;;5.70;100.00;101769.88;5114588;28;20020;-73
2021/01/02 05:10:38;;;;;;;38.38;24.65;;;;;;;5.80;100.00;101770.06;5114754;28;20023;-75
2021/01/02 05:13:29;;;;;;;44.25;26.13;;;;;;;5.74;100.00;101769.09;5114347;28;20039;-74
2021/01/02 05:16:34;;;;;;;45.17;26.20;;;;;;;5.67;100.00;101773.28;5114773;28;20031;-74
2021/01/02 05:19:20;;;;;;;47.17;28.75;;;;;;;5.54;100.00;101779.09;5099002;28;20056;-74
2021/01/02 05:22:22;;;;;;;50.60;31.15;;;;;;;5.63;100.00;101786.19;5114445;28;20039;-75
2021/01/02 05:25:17;;;;;;;52.40;32.92;;;;;;;5.51;100.00;101788.56;5114571;28;20103;-74
2021/01/02 05:28:03;;;;;;;49.95;30.65;;;;;;;5.73;100.00;101794.19;5114777;28;20421;-75
2021/01/02 05:30:49;;;;;;;48.97;30.33;;;;;;;5.35;100.00;101798.63;5113902;28;20103;-75
2021/01/02 05:33:35;;;;;;;50.80;31.27;;;;;;;5.06;100.00;101794.53;5113972;28;20024;-74
2021/01/02 05:36:21;;;;;;;47.45;29.83;;;;;;;4.99;100.00;101795.25;5113334;28;20020;-73
2021/01/02 05:39:09;;;;;;;55.08;33.40;;;;;;;5.13;100.00;101803.34;5114825;28;20030;-74
2021/01/02 05:41:55;;;;;;;56.67;35.45;;;;;;;4.98;100.00;101801.28;5113078;28;20030;-73
2021/01/02 05:44:41;;;;;;;52.50;32.30;;;;;;;4.56;100.00;101804.63;5115067;28;20365;-74
2021/01/02 05:47:28;;;;;;;53.42;34.35;;;;;;;4.87;100.00;101807.97;5114304;28;20408;-75
2021/01/02 05:50:20;;;;;;;54.10;31.52;;;;;;;5.09;100.00;101814.50;5114336;28;20043;-74
2021/01/02 05:53:35;;;;;;;48.25;30.05;;;;;;;4.82;100.00;101819.97;5114505;28;20381;-75
2021/01/02 05:56:22;;;;;;;48.15;30.90;;;;;;;5.38;100.00;101818.59;5114381;28;20055;-74
2021/01/02 05:59:08;;;;;;;44.78;28.60;;;;;;;5.14;100.00;101821.56;5114441;28;20042;-74
2021/01/02 06:01:54;;;;;;;50.85;30.80;;;;;;;5.35;100.00;101826.34;5099695;28;20096;-73
2021/01/02 06:05:11;;;;;;;46.35;29.42;;;;;;;5.38;100.00;101823.81;5113740;28;20046;-73
2021/01/02 06:07:57;;;;;;;50.50;31.85;;;;;;;5.47;100.00;101834.41;5113026;28;20015;-73
2021/01/02 06:10:42;;;;;;;49.65;31.40;;;;;;;5.66;100.00;101833.06;5114393;28;20020;-75
2021/01/02 06:13:30;;;;;;;51.88;34.33;;;;;;;5.43;100.00;101829.09;5098370;28;20024;-74
2021/01/02 06:16:16;;;;;;;55.50;34.35;;;;;;;5.48;100.00;101836.16;5114225;28;20020;-74
2021/01/02 06:19:02;;;;;;;55.95;33.92;;;;;;;5.22;100.00;101840.78;5114002;28;20034;-73
2021/01/02 06:21:48;;;;;;;57.53;35.85;;;;;;;5.33;100.00;101836.72;5099716;28;20055;-74
2021/01/02 06:24:33;;;;;;;48.38;30.52;;;;;;;5.03;100.00;101837.75;5114195;28;20034;-73
2021/01/02 06:27:19;;;;;;;39.85;26.35;;;;;;;4.94;100.00;101834.94;5114333;28;20092;-73
2021/01/02 06:30:06;;;;;;;39.45;25.15;;;;;;;4.70;100.00;101836.94;5114705;28;20444;-74
2021/01/02 06:32:51;;;;;;;39.35;25.23;;;;;;;5.21;100.00;101841.66;5099739;28;20032;-74
2021/01/02 06:35:38;;;;;;;42.08;25.30;;;;;;;4.95;100.00;101849.69;5113867;28;20097;-74
2021/01/02 06:38:25;;;;;;;41.13;25.65;;;;;;;4.99;100.00;101849.78;5114038;28;20469;-75
2021/01/02 06:41:27;;;;;;;38.55;25.92;;;;;;;4.70;100.00;101850.81;5113975;28;20086;-73
2021/01/02 06:44:37;;;;;;;47.83;28.08;;;;;;;5.39;100.00;101856.75;5113720;28;20020;-75
2021/01/02 06:47:31;;;;;;;50.53;29.23;;;;;;;5.42;100.00;101861.13;5113827;28;20068;-74
2021/01/02 06:50:17;;;;;;;47.70;27.40;;;;;;;5.48;100.00;101852.59;5101882;28;20058;-74
2021/01/02 06:53:17;;;;;;;43.90;26.10;;;;;;;5.17;100.00;101859.72;5116904;28;20457;-74
2021/01/02 06:56:05;;;;;;;39.38;24.88;;;;;;;5.34;100.00;101859.25;5116715;28;20036;-74
2021/01/02 06:58:51;;;;;;;41.30;25.98;;;;;;;5.95;100.00;101860.53;5117347;28;20027;-74
2021/01/02 07:01:39;;;;;;;39.53;23.98;;;;;;;5.99;100.00;101864.94;5117121;28;20023;-74
2021/01/02 07:04:36;;;;;;;38.55;23.48;;;;;;;6.40;100.00;101871.78;5117746;28;20084;-74
2021/01/02 07:07:38;;;;;;;31.63;19.83;;;;;;;6.54;100.00;101871.19;5116590;28;20042;-75
2021/01/02 07:10:28;;;;;;;27.83;17.83;;;;;;;6.35;100.00;101870.84;5116468;28;20028;-74
2021/01/02 07:13:13;;;;;;;26.20;16.70;;;;;;;5.76;100.00;101873.97;5116365;28;20395;-75
2021/01/02 07:16:31;;;;;;;28.73;16.48;;;;;;;6.16;100.00;101877.44;5117344;28;20035;-75
2021/01/02 07:19:32;;;;;;;25.20;15.80;;;;;;;6.28;100.00;101872.47;5116214;28;20027;-74
2021/01/02 07:22:17;;;;;;;27.48;16.25;;;;;;;6.19;100.00;101877.47;5101703;28;20354;-74
2021/01/02 07:25:08;;;;;;;28.67;16.88;;;;;;;6.11;100.00;101880.78;5101334;28;20027;-74
2021/01/02 07:28:01;;;;;;;27.45;16.77;;;;;;;6.71;100.00;101868.88;5116214;28;20020;-75
2021/01/02 07:30:47;;;;;;;28.92;16.83;;;;;;;7.05;100.00;101869.41;5101667;28;20122;-74
2021/01/02 07:33:38;;;;;;;29.52;17.58;;;;;;;7.11;100.00;101872.09;5116686;28;20504;-75
2021/01/02 07:36:24;;;;;;;27.98;17.27;;;;;;;7.29;100.00;101880.19;5116035;28;20028;-74
2021/01/02 07:39:10;;;;;;;30.50;16.80;;;;;;;6.83;100.00;101875.13;5116950;28;20106;-74
2021/01/02 07:42:01;;;;;;;28.00;16.70;;;;;;;7.18;100.00;101875.66;5115862;28;20024;-74
2021/01/02 07:44:57;;;;;;;22.48;15.25;;;;;;;7.40;100.00;101880.34;5116833;28;20020;-75
2021/01/02 07:47:50;;;;;;;22.20;15.00;;;;;;;7.08;100.00;101871.19;5116165;28;20030;-75
2021/01/02 07:50:36;;;;;;;22.00;14.10;;;;;;;7.75;100.00;101876.44;5116411;28;20062;-75
2021/01/02 07:53:22;;;;;;;21.50;13.68;;;;;;;7.82;100.00;101876.56;5116081;28;20031;-75
2021/01/02 07:56:08;;;;;;;22.27;13.70;;;;;;;8.07;100.00;101877.69;5116208;28;20110;-75
2021/01/02 07:58:53;;;;;;;20.13;12.32;;;;;;;8.88;100.00;101878.53;5116056;28;20035;-74
2021/01/02 08:01:47;;;;;;;20.55;12.23;;;;;;;8.99;100.00;101869.91;5101963;28;20019;-74
2021/01/02 08:04:35;;;;;;;25.65;14.10;;;;;;;8.96;100.00;101882.09;5116100;28;20342;-74
2021/01/02 08:07:21;;;;;;;18.52;11.82;;;;;;;9.67;100.00;101880.75;5116070;28;20077;-74
2021/01/02 08:10:12;;;;;;;17.73;11.38;;;;;;;9.73;100.00;101880.81;5101704;28;20065;-74
2021/01/02 08:13:02;;;;;;;14.68;9.93;;;;;;;10.15;100.00;101880.97;5115709;28;20034;-74
2021/01/02 08:15:52;;;;;;;18.73;11.38;;;;;;;10.30;100.00;101881.03;5101585;28;20034;-75
2021/01/02 08:18:38;;;;;;;19.70;10.93;;;;;;;10.59;100.00;101870.56;5115178;28;20031;-75
2021/01/02 08:21:24;;;;;;;15.25;10.30;;;;;;;10.07;100.00;101880.09;5115454;28;20047;-74
2021/01/02 08:24:12;;;;;;;20.08;11.60;;;;;;;10.10;100.00;101880.09;5116568;27;20088;-75
2021/01/02 08:27:00;;;;;;;18.02;11.75;;;;;;;9.85;100.00;101884.34;5116264;28;20378;-74
2021/01/02 08:29:46;;;;;;;17.92;12.65;;;;;;;9.04;100.00;101885.59;5100230;28;20047;-74
2021/01/02 08:32:35;;;;;;;20.48;12.30;;;;;;;10.11;100.00;101887.09;5114744;28;20034;-73
2021/01/02 08:35:27;;;;;;;17.65;12.23;;;;;;;9.72;100.00;101884.28;5114817;28;20038;-75
2021/01/02 08:38:14;;;;;;;15.68;11.38;;;;;;;10.04;100.00;101883.53;5114720;28;20020;-75
2021/01/02 08:40:59;;;;;;;18.08;11.45;;;;;;;8.69;100.00;101887.09;5115906;28;20076;-74
2021/01/02 08:43:48;;;;;;;17.20;11.75;;;;;;;8.77;100.00;101886.25;5115183;28;20019;-73
2021/01/02 08:46:35;;;;;;;19.48;12.25;;;;;;;9.89;100.00;101880.00;5100918;28;20026;-74
2021/01/02 08:49:41;;;;;;;21.58;12.57;;;;;;;10.19;100.00;101877.50;5100689;28;20031;-74
2021/01/02 08:52:34;;;;;;;20.48;12.23;;;;;;;10.40;100.00;101868.81;5099566;28;20508;-75
2021/01/02 08:55:20;;;;;;;19.80;12.23;;;;;;;9.80;100.00;101866.84;5115380;28;20028;-75
2021/01/02 08:58:06;;;;;;;26.02;13.82;;;;;;;9.65;100.00;101874.66;5114765;28;20042;-75
2021/01/02 09:00:51;;;;;;;19.73;14.40;;;;;;;9.65;100.00;101872.91;5114267;28;20034;-74
2021/01/02 09:03:37;;;;;;;25.58;14.73;;;;;;;9.57;100.00;101874.59;5100529;28;20030;-74
2021/01/02 09:06:26;;;;;;;21.75;13.57;;;;;;;8.93;100.00;101867.22;5114234;28;20103;-74
2021/01/02 09:09:13;;;;;;;16.42;11.98;;;;;;;9.40;100.00;101870.16;5101165;28;20456;-74
2021/01/02 09:12:04;;;;;;;17.70;11.73;;;;;;;9.72;100.00;101868.56;5114132;28;20028;-74
2021/01/02 09:14:50;;;;;;;18.42;12.20;;;;;;;10.59;100.00;101860.97;5114586;28;20027;-74
2021/01/02 09:17:56;;;;;;;17.08;11.65;;;;;;;10.27;100.00;101859.19;5114828;28;20032;-75
2021/01/02 09:20:42;;;;;;;17.15;12.10;;;;;;;10.16;100.00;101858.31;5116056;27;20019;-75
2021/01/02 09:23:35;;;;;;;18.23;12.68;;;;;;;10.03;100.00;101849.50;5114520;28;20066;-74
2021/01/02 09:26:22;;;;;;;18.85;12.70;;;;;;;9.84;100.00;101858.16;5114109;28;20023;-75
2021/01/02 09:29:13;;;;;;;19.38;12.30;;;;;;;9.00;100.00;101847.22;5114685;28;20027;-75
2021/01/02 09:31:59;;;;;;;21.10;11.82;;;;;;;9.00;100.00;101844.63;5113824;28;20034;-75
2021/01/02 09:34:45;;;;;;;19.40;12.40;;;;;;;9.95;100.00;101838.13;5113872;28;20517;-74
2021/01/02 09:37:30;;;;;;;19.35;12.32;;;;;;;9.96;100.00;101840.75;5113478;28;20100;-74
2021/01/02 09:40:19;;;;;;;24.40;12.75;;;;;;;10.12;100.00;101835.59;5113793;28;20024;-75
2021/01/02 09:43:07;;;;;;;18.25;12.10;;;;;;;10.18;100.00;101833.88;5099035;28;20034;-75
2021/01/02 09:45:53;;;;;;;20.40;11.98;;;;;;;10.27;100.00;101823.38;5113821;28;20027;-75
2021/01/02 09:48:41;;;;;;;19.15;12.38;;;;;;;10.85;100.00;101825.13;5100511;28;20465;-75
2021/01/02 09:51:30;;;;;;;19.38;12.70;;;;;;;9.52;100.00;101823.13;5099750;28;20027;-74
2021/01/02 09:54:15;;;;;;;20.23;14.00;;;;;;;9.58;100.00;101818.81;5115451;28;20392;-73
2021/01/02 09:57:02;;;;;;;20.83;13.40;;;;;;;9.26;100.00;101811.69;5115294;28;20447;-73
2021/01/02 09:59:48;;;;;;;24.67;15.50;;;;;;;9.21;100.00;101803.81;5099111;28;20023;-74
2021/01/02 10:02:34;;;;;;;23.67;15.60;;;;;;;9.53;100.00;101809.22;5113750;28;20089;-75
2021/01/02 10:05:21;;;;;;;24.35;16.95;;;;;;;9.80;100.00;101799.69;5098883;28;20035;-75
2021/01/02 10:08:07;;;;;;;26.17;16.80;;;;;;;9.48;100.00;101790.88;5100289;28;20028;-75
2021/01/02 10:10:53;;;;;;;26.50;16.50;;;;;;;9.87;100.00;101785.75;5114139;28;20065;-75
2021/01/02 10:13:39;;;;;;;25.25;16.42;;;;;;;9.43;100.00;101779.50;5113889;28;20028;-74
2021/01/02 10:16:24;;;;;;;24.58;16.10;;;;;;;9.82;100.00;101779.63;5113921;28;20038;-74
2021/01/02 10:19:10;;;;;;;24.73;16.42;;;;;;;10.20;100.00;101776.25;5113987;28;20032;-75
2021/01/02 10:21:57;;;;;;;26.75;16.15;;;;;;;10.51;100.00;101773.63;5114172;28;20051;-74
2021/01/02 10:24:46;;;;;;;20.92;15.35;;;;;;;10.46;100.00;101767.53;5118022;28;20015;-75
2021/01/02 10:27:32;;;;;;;25.10;14.43;;;;;;;11.17;100.00;101760.38;5116362;28;20035;-73
2021/01/02 10:30:18;;;;;;;22.15;13.50;;;;;;;11.36;100.00;101756.81;5117980;28;20027;-75
2021/01/02 10:33:04;;;;;;;23.73;13.38;;;;;;;11.55;100.00;101742.75;5117669;28;20031;-75
2021/01/02 10:35:50;;;;;;;20.77;12.93;;;;;;;11.38;100.00;101749.84;5102678;28;20088;-73
2021/01/02 10:38:35;;;;;;;18.05;12.52;;;;;;;11.59;100.00;101743.59;5117650;28;20031;-74
2021/01/02 10:41:21;;;;;;;18.52;12.07;;;;;;;11.87;100.00;101747.84;5117018;28;20031;-75
2021/01/02 10:44:07;;;;;;;17.80;12.60;;;;;;;11.79;100.00;101732.13;5117470;28;20369;-75
2021/01/02 10:46:53;;;;;;;16.73;11.48;;;;;;;11.49;100.00;101734.88;5103633;28;20028;-73
2021/01/02 10:49:40;;;;;;;18.48;11.77;;;;;;;11.34;100.00;101734.97;5117313;28;20039;-75
2021/01/02 10:52:27;;;;;;;19.08;12.80;;;;;;;11.60;100.00;101724.31;5102891;28;20092;-77
2021/01/02 10:55:13;;;;;;;20.13;13.35;;;;;;;11.89;100.00;101715.44;5116517;28;20418;-77
2021/01/02 10:57:59;;;;;;;19.10;13.00;;;;;;;11.75;100.00;101716.41;5102874;28;20042;-73
2021/01/02 11:00:45;;;;;;;20.10;12.75;;;;;;;11.71;100.00;101718.19;5117477;28;20106;-75
2021/01/02 11:03:31;;;;;;;21.23;13.68;;;;;;;12.54;100.00;101721.00;5116936;28;20080;-76
2021/01/02 11:06:17;;;;;;;22.60;13.65;;;;;;;12.07;100.00;101710.06;5117908;28;20028;-75
2021/01/02 11:09:03;;;;;;;21.40;12.85;;;;;;;12.64;100.00;101711.28;5117172;28;20050;-75
2021/01/02 11:11:52;;;;;;;22.48;13.50;;;;;;;13.23;100.00;101707.09;5117530;28;20035;-75
2021/01/02 11:14:39;;;;;;;25.85;13.40;;;;;;;13.37;100.00;101699.03;5117845;28;20032;-74
2021/01/02 11:17:24;;;;;;;18.33;12.80;;;;;;;12.72;100.00;101698.91;5115714;28;20134;-75
2021/01/02 11:20:11;;;;;;;17.77;11.65;;;;;;;12.45;100.00;101700.06;5116076;28;20023;-75
2021/01/02 11:22:57;;;;;;;18.35;12.40;;;;;;;12.48;100.00;101701.78;5117142;28;20135;-74
2021/01/02 11:25:43;;;;;;;17.50;12.40;;;;;;;11.82;100.00;101699.75;5117121;28;20020;-75
2021/01/02 11:28:29;;;;;;;16.08;12.13;;;;;;;12.67;100.00;101690.22;5115947;28;20031;-75
2021/01/02 11:31:15;;;;;;;18.77;12.50;;;;;;;12.66;100.00;101689.34;5101809;28;20031;-75
2021/01/02 11:34:01;;;;;;;20.17;12.27;;;;;;;12.86;100.00;101684.72;5115973;28;20053;-74
2021/01/02 11:36:49;;;;;;;23.48;12.45;;;;;;;13.55;100.00;101673.31;5116648;28;20023;-75
2021/01/02 11:39:35;;;;;;;20.27;12.55;;;;;;;12.94;100.00;101682.03;5115309;28;20053;-75
2021/01/02 11:42:21;;;;;;;17.17;11.45;;;;;;;13.13;100.00;101675.66;5116308;28;20092;-75
2021/01/02 11:45:13;;;;;;;22.92;14.35;;;;;;;13.33;100.00;101678.91;5116416;28;20019;-74
2021/01/02 11:47:58;;;;;;;18.88;12.32;;;;;;;12.22;100.00;101678.38;5115399;28;20080;-75
2021/01/02 11:50:44;;;;;;;24.00;13.80;;;;;;;12.70;100.00;101685.78;5115968;28;20046;-74
2021/01/02 11:53:30;;;;;;;19.10;12.48;;;;;;;12.24;100.00;101681.00;5116510;28;20038;-75
2021/01/02 11:56:22;;;;;;;20.15;12.00;;;;;;;12.47;100.00;101686.91;5115389;28;20119;-76
2021/01/02 11:59:08;;;;;;;20.95;12.68;;;;;;;12.54;100.00;101680.72;5100713;28;20032;-75
2021/01/02 12:01:56;;;;;;;18.33;12.52;;;;;;;12.63;100.00;101686.75;5116044;28;20034;-74
2021/01/02 12:04:44;;;;;;;20.17;13.63;;;;;;;11.86;100.00;101676.06;5115126;28;20012;-75
2021/01/02 12:07:30;;;;;;;25.70;14.93;;;;;;;12.13;100.00;101678.47;5114962;28;20376;-74
2021/01/02 12:10:17;;;;;;;16.70;12.70;;;;;;;12.22;100.00;101680.16;5115743;28;20024;-75
2021/01/02 12:13:02;;;;;;;19.63;13.20;;;;;;;12.27;100.00;101676.59;5115103;28;20057;-75
2021/01/02 12:15:50;;;;;;;18.15;13.40;;;;;;;13.02;100.00;101681.06;5116948;27;20023;-75
2021/01/02 12:18:36;;;;;;;25.10;13.75;;;;;;;13.06;100.00;101682.78;5116814;28;20031;-77
2021/01/02 12:21:21;;;;;;;21.40;13.15;;;;;;;12.72;100.00;101688.41;5118446;28;20126;-74
2021/01/02 12:24:08;;;;;;;21.20;13.57;;;;;;;12.90;100.00;101689.06;5117275;28;20405;-75
2021/01/02 12:26:56;;;;;;;23.92;14.60;;;;;;;13.14;100.00;101680.91;5115200;28;20023;-76
2021/01/02 12:29:43;;;;;;;21.77;14.32;;;;;;;13.27;100.00;101685.13;5115135;28;20024;-75
2021/01/02 12:32:29;;;;;;;25.83;14.85;;;;;;;13.03;100.00;101687.22;5086935;28;20042;-75
2021/01/02 12:35:15;;;;;;;22.40;14.50;;;;;;;12.87;100.00;101690.88;5116746;28;20024;-75
2021/01/02 12:38:00;;;;;;;21.33;13.50;;;;;;;13.42;100.00;101686.72;5115184;28;20028;-74
2021/01/02 12:40:46;;;;;;;20.98;14.25;;;;;;;13.50;100.00;101690.97;5114980;28;20121;-74
2021/01/02 12:43:32;;;;;;;19.85;13.00;;;;;;;12.66;100.00;101693.75;5114360;28;20038;-75
2021/01/02 12:46:18;;;;;;;18.85;12.77;;;;;;;12.59;100.00;101692.06;5114212;28;20122;-75
2021/01/02 12:49:04;;;;;;;20.08;13.00;;;;;;;12.37;100.00;101695.75;5100168;28;20031;-75